Time;durP1;ratioP1;P1;durP2;ratioP2;P2;SDS_P1;SDS_P2;PMS_P1;PMS_P2;Temp;Humidity;BMP_temperature;BMP_pressure;BME280_temperature;BME280_humidity;BME280_pressure;Samples;Min_cycle;Max_cycle;Signal;HPM_P1;HPM_P2
2023/10/05 00:01:13;;;;;;;;;1.00;1.00;;;;;-143.90;100.00;76098.53;4955793;28;104661;-76
2023/10/05 00:03:44;;;;;;;;;2.25;2.25;;;;;-143.90;100.00;76108.84;4948474;28;101984;-76
2023/10/05 00:06:14;;;;;;;;;1.75;1.75;;;;;-143.90;100.00;76098.53;4965939;28;103170;-76
2023/10/05 00:08:47;;;;;;;;;4.50;3.00;;;;;-143.90;100.00;76098.53;4964624;28;103557;-76
2023/10/05 00:11:23;;;;;;;;;1.00;1.00;;;;;-143.90;100.00;76094.38;4989599;28;105172;-76
2023/10/05 00:13:51;;;;;;;;;2.75;2.75;;;;;-143.90;100.00;76096.44;4967593;28;103657;-76
2023/10/05 00:16:22;;;;;;;;;3.50;2.25;;;;;-143.90;100.00;76119.19;4956054;28;101952;-76
2023/10/05 00:18:50;;;;;;;;;4.00;4.00;;;;;-143.90;100.00;76106.78;4979031;28;104006;-76
2023/10/05 00:21:19;;;;;;;;;1.00;1.00;;;;;-143.90;100.00;76113.00;4978958;28;103575;-76
2023/10/05 00:23:53;;;;;;;;;3.00;2.25;;;;;-143.90;100.00;76119.19;4982078;28;101852;-76
2023/10/05 00:26:27;;;;;;;;;2.25;2.25;;;;;-143.90;100.00;76135.75;4976999;28;102128;-77
2023/10/05 00:31:38;;;;;;;;;3.00;3.00;;;;;-143.90;100.00;76123.34;4974401;28;106831;-75
2023/10/05 00:34:12;;;;;;;;;1.50;1.50;;;;;-143.90;100.00;76121.28;4984557;28;102775;-76
2023/10/05 00:36:43;;;;;;;;;3.00;2.50;;;;;-143.90;100.00;76127.47;4972914;28;101762;-76
2023/10/05 00:39:10;;;;;;;;;4.00;3.00;;;;;-143.90;100.00;76125.41;4976718;28;101687;-76
2023/10/05 00:41:37;;;;;;;;;3.25;3.00;;;;;-143.90;100.00;76129.53;4977325;28;103600;-76
2023/10/05 00:44:05;;;;;;;;;2.00;2.00;;;;;-143.90;100.00;76127.47;4978204;28;102013;-76
2023/10/05 00:46:37;;;;;;;;;2.00;2.00;;;;;-143.90;100.00;76115.06;4969213;28;101928;-76
2023/10/05 00:49:19;;;;;;;;;1.25;1.25;;;;;-143.90;100.00;76119.19;4979218;28;102176;-76
2023/10/05 00:51:56;;;;;;;;;2.00;0.75;;;;;-143.90;100.00;76115.06;4986086;28;103525;-76
2023/10/05 00:54:30;;;;;;;;;3.00;3.00;;;;;-143.90;100.00;76125.41;4974292;28;101804;-76
2023/10/05 00:57:02;;;;;;;;;3.00;2.00;;;;;-143.90;100.00;76106.78;4976949;28;101886;-76
2023/10/05 00:59:31;;;;;;;;;4.00;4.00;;;;;-143.90;100.00;76113.00;4971313;28;101757;-76
2023/10/05 01:04:53;;;;;;;;;3.00;3.00;;;;;-143.90;100.00;76127.47;4975911;28;101530;-75
2023/10/05 01:12:41;;;;;;;;;2.50;2.50;;;;;-143.90;100.00;76100.59;4952162;28;102806;-76
2023/10/05 01:15:10;;;;;;;;;1.50;0.75;;;;;-143.90;100.00;76094.38;4971417;28;102007;-76
2023/10/05 01:17:37;;;;;;;;;2.50;1.75;;;;;-143.90;100.00;76092.31;4968222;28;102538;-76
2023/10/05 01:20:27;;;;;;;;;0.00;0.00;;;;;-143.90;100.00;76100.59;4976793;28;102011;-75
2023/10/05 01:22:57;;;;;;;;;1.00;0.00;;;;;-143.90;100.00;76096.44;4964060;28;102820;-76
2023/10/05 01:25:27;;;;;;;;;2.00;1.00;;;;;-143.90;100.00;76102.66;4977322;28;101865;-77
2023/10/05 01:27:54;;;;;;;;;2.00;1.00;;;;;-143.90;100.00;76104.72;4970407;28;101769;-77
2023/10/05 01:30:21;;;;;;;;;1.50;1.00;;;;;-143.90;100.00;76110.94;4975013;28;101842;-77
2023/10/05 01:32:49;;;;;;;;;4.00;3.00;;;;;-143.90;100.00;76106.78;4950044;28;103938;-77
2023/10/05 01:35:17;;;;;;;;;6.00;5.25;;;;;-143.90;100.00;76081.97;4972176;28;102813;-76
2023/10/05 01:37:46;;;;;;;;;4.25;4.00;;;;;-143.90;100.00;76090.25;4970544;28;101733;-76
2023/10/05 01:42:48;;;;;;;;;4.75;3.50;;;;;-143.90;100.00;76081.97;4963012;28;105146;-76
2023/10/05 01:45:16;;;;;;;;;4.50;4.00;;;;;-143.90;100.00;76086.13;4961757;28;102189;-75
2023/10/05 01:47:44;;;;;;;;;2.00;2.00;;;;;-143.90;100.00;76073.72;4991661;28;101604;-76
2023/10/05 01:50:18;;;;;;;;;3.00;3.00;;;;;-143.90;100.00;76069.56;4960648;28;101960;-76
2023/10/05 01:52:56;;;;;;;;;3.50;2.25;;;;;-143.90;100.00;76071.63;4955574;28;103709;-75
2023/10/05 01:55:24;;;;;;;;;1.00;1.00;;;;;-143.90;100.00;76069.56;4961332;28;101662;-77
2023/10/05 01:57:57;;;;;;;;;4.75;4.00;;;;;-143.90;100.00;76057.16;4968871;28;101647;-76
2023/10/05 02:00:25;;;;;;;;;3.50;3.00;;;;;-143.90;100.00;76063.38;4955667;27;101822;-76
2023/10/05 02:02:55;;;;;;;;;3.00;2.75;;;;;-143.90;100.00;76057.16;4965163;28;103220;-77
2023/10/05 02:05:23;;;;;;;;;2.00;2.00;;;;;-143.90;100.00;76065.44;4967752;28;101838;-77
2023/10/05 02:07:50;;;;;;;;;5.00;3.00;;;;;-143.90;100.00;76061.31;4956169;28;101763;-76
2023/10/05 02:10:20;;;;;;;;;2.75;2.75;;;;;-143.90;100.00;76063.38;4976410;28;101794;-76
2023/10/05 02:12:49;;;;;;;;;3.00;2.00;;;;;-143.90;100.00;76059.22;4972417;27;103549;-76
2023/10/05 02:15:16;;;;;;;;;3.00;2.25;;;;;-143.90;100.00;76065.44;4952600;28;102306;-75
2023/10/05 02:17:47;;;;;;;;;2.75;2.00;;;;;-143.90;100.00;76061.31;4967640;28;101642;-75
2023/10/05 02:23:00;;;;;;;;;4.00;2.00;;;;;-143.90;100.00;76061.31;4959784;28;103541;-75
2023/10/05 02:25:33;;;;;;;;;3.00;3.00;;;;;-143.90;100.00;76057.16;4966561;28;101680;-76
2023/10/05 02:28:02;;;;;;;;;3.00;3.00;;;;;-143.90;100.00;76057.16;4977723;28;103633;-76
2023/10/05 02:30:31;;;;;;;;;4.00;2.75;;;;;-143.90;100.00;76055.09;4974354;27;101934;-76
2023/10/05 02:32:59;;;;;;;;;3.25;2.00;;;;;-143.90;100.00;76057.16;4942236;28;103567;-76
2023/10/05 02:35:33;;;;;;;;;4.00;3.50;;;;;-143.90;100.00;76048.88;4971030;28;104093;-76
2023/10/05 02:38:07;;;;;;;;;1.75;1.25;;;;;-143.90;100.00;76053.03;4967832;28;101880;-76
2023/10/05 02:40:45;;;;;;;;;2.50;2.50;;;;;-143.90;100.00;76053.03;4971488;27;102600;-75
2023/10/05 02:43:15;;;;;;;;;4.00;3.00;;;;;-143.90;100.00;76044.75;4955359;27;107105;-76
2023/10/05 02:45:42;;;;;;;;;2.00;1.00;;;;;-143.90;100.00;76050.97;4962611;28;102260;-75
2023/10/05 02:48:10;;;;;;;;;3.00;2.25;;;;;-143.90;100.00;76040.63;4967977;28;101696;-76
2023/10/05 02:50:40;;;;;;;;;2.00;2.00;;;;;-143.90;100.00;76040.63;4956964;28;101799;-76
2023/10/05 02:53:06;;;;;;;;;4.00;3.00;;;;;-143.90;100.00;76030.28;4970076;28;102414;-76
2023/10/05 02:55:36;;;;;;;;;3.75;3.25;;;;;-143.90;100.00;76038.56;4956072;28;101944;-76
2023/10/05 02:58:04;;;;;;;;;4.25;4.00;;;;;-143.90;100.00;76042.69;4987906;27;101943;-76
2023/10/05 03:00:33;;;;;;;;;3.75;3.50;;;;;-143.90;100.00;76038.56;4978232;28;101810;-76
2023/10/05 03:03:05;;;;;;;;;2.00;2.00;;;;;-143.90;100.00;76046.81;4957767;28;102392;-76
2023/10/05 03:05:35;;;;;;;;;3.25;3.25;;;;;-143.90;100.00;76048.88;4953337;28;102185;-76
2023/10/05 03:08:03;;;;;;;;;3.50;3.50;;;;;-143.90;100.00;76036.47;4974412;28;103566;-76
2023/10/05 03:10:30;;;;;;;;;2.50;1.75;;;;;-143.90;100.00;76042.69;4977432;28;101741;-76
2023/10/05 03:12:58;;;;;;;;;3.50;2.00;;;;;-143.90;100.00;76036.47;4991329;28;103352;-76
2023/10/05 03:15:27;;;;;;;;;4.00;4.00;;;;;-143.90;100.00;76030.28;4966460;28;101609;-76
2023/10/05 03:17:57;;;;;;;;;0.25;0.25;;;;;-143.90;100.00;76036.47;4974003;28;101586;-76
2023/10/05 03:20:28;;;;;;;;;5.00;5.00;;;;;-143.90;100.00;76036.47;4969039;28;101758;-76
2023/10/05 03:22:55;;;;;;;;;3.50;3.50;;;;;-143.90;100.00;76040.63;4968738;28;103818;-76
2023/10/05 03:25:23;;;;;;;;;4.50;4.00;;;;;-143.90;100.00;76036.47;4966594;28;101630;-76
2023/10/05 03:27:50;;;;;;;;;8.00;4.50;;;;;-143.90;100.00;76040.63;4970126;28;101506;-76
2023/10/05 03:30:17;;;;;;;;;3.50;2.25;;;;;-143.90;100.00;76040.63;4962359;28;101845;-76
2023/10/05 03:32:48;;;;;;;;;8.25;6.50;;;;;-143.90;100.00;76038.56;4955641;28;103416;-75
2023/10/05 03:35:22;;;;;;;;;8.25;8.00;;;;;-143.90;100.00;76050.97;4983074;28;101589;-76
2023/10/05 03:37:49;;;;;;;;;7.25;5.00;;;;;-143.90;100.00;76055.09;4982604;28;101590;-76
2023/10/05 03:40:27;;;;;;;;;7.75;7.00;;;;;-143.90;100.00;76053.03;4945916;27;103793;-76
2023/10/05 03:42:58;;;;;;;;;4.00;4.00;;;;;-143.90;100.00;76061.31;4971312;28;103228;-74
2023/10/05 03:45:26;;;;;;;;;8.50;8.00;;;;;-143.90;100.00;76081.97;4977531;28;101789;-76
2023/10/05 03:47:53;;;;;;;;;4.00;4.00;;;;;-143.90;100.00;76084.03;4973596;28;104272;-76
2023/10/05 03:50:21;;;;;;;;;7.25;6.75;;;;;-143.90;100.00;76090.25;4976064;28;102587;-75
2023/10/05 03:52:48;;;;;;;;;5.00;4.25;;;;;-143.90;100.00;76081.97;4980843;28;103680;-75
2023/10/05 03:55:18;;;;;;;;;7.00;5.00;;;;;-143.90;100.00;76094.38;4978898;28;101981;-75
2023/10/05 03:57:46;;;;;;;;;5.00;4.00;;;;;-143.90;100.00;76096.44;4977277;28;102782;-76
2023/10/05 04:02:52;;;;;;;;;3.00;3.00;;;;;-143.90;100.00;76100.59;4976047;28;103611;-74
2023/10/05 04:05:22;;;;;;;;;3.00;3.00;;;;;-143.90;100.00;76115.06;4975993;28;101657;-75
2023/10/05 04:07:51;;;;;;;;;4.75;4.00;;;;;-143.90;100.00;76113.00;4966485;28;103003;-77
2023/10/05 04:10:23;;;;;;;;;2.00;2.00;;;;;-143.90;100.00;76119.19;4980204;28;103222;-75
2023/10/05 04:12:54;;;;;;;;;4.00;3.75;;;;;-143.90;100.00;76127.47;4981315;28;102497;-77
2023/10/05 04:15:22;;;;;;;;;2.00;2.00;;;;;-143.90;100.00;76123.34;4978265;28;101685;-76
2023/10/05 04:17:49;;;;;;;;;3.50;3.50;;;;;-143.90;100.00;76127.47;4973011;28;102787;-76
2023/10/05 04:20:35;;;;;;;;;4.00;3.00;;;;;-143.90;100.00;76139.88;4966896;27;101973;-77
2023/10/05 04:23:07;;;;;;;;;2.75;2.00;;;;;-143.90;100.00;76144.00;4969267;28;107230;-77
2023/10/05 04:25:35;;;;;;;;;4.00;3.00;;;;;-143.90;100.00;76152.28;4983048;28;101947;-76
2023/10/05 04:28:03;;;;;;;;;3.25;2.50;;;;;-143.90;100.00;76135.75;4973297;28;101620;-77
2023/10/05 04:30:30;;;;;;;;;2.00;2.00;;;;;-143.90;100.00;76148.16;4945864;28;102859;-77
2023/10/05 04:32:57;;;;;;;;;3.00;3.00;;;;;-143.90;100.00;76148.16;4910896;27;102462;-77
2023/10/05 04:35:27;;;;;;;;;3.75;3.75;;;;;-143.90;100.00;76135.75;4949608;28;102745;-77
2023/10/05 04:37:55;;;;;;;;;4.00;3.75;;;;;-143.90;100.00;76135.75;4925856;28;102938;-76
2023/10/05 04:40:24;;;;;;;;;7.00;4.75;;;;;-143.90;100.00;76135.75;4942079;28;102281;-76
2023/10/05 04:42:52;;;;;;;;;3.50;3.50;;;;;-143.90;100.00;76141.94;4945183;28;104475;-77
2023/10/05 04:45:23;;;;;;;;;5.67;4.00;;;;;-143.90;100.00;76144.00;4895266;28;103263;-76
2023/10/05 04:47:58;;;;;;;;;8.00;4.00;;;;;-143.90;100.00;76150.22;4937251;28;102003;-76
2023/10/05 04:50:26;;;;;;;;;5.00;4.50;;;;;-143.90;100.00;76158.50;4952893;28;102207;-76
2023/10/05 04:52:54;;;;;;;;;5.00;4.00;;;;;-143.90;100.00;76164.69;4964052;28;103786;-76
2023/10/05 04:55:31;;;;;;;;;5.00;5.00;;;;;-143.90;100.00;76154.34;4928167;28;103462;-75
2023/10/05 04:58:20;;;;;;;;;4.25;3.00;;;;;-143.90;100.00;76156.41;4976501;28;101612;-77
2023/10/05 05:08:35;;;;;;;;;2.00;2.00;;;;;-143.90;100.00;76115.06;4969046;28;102064;-76
2023/10/05 05:11:08;;;;;;;;;4.75;4.75;;;;;-143.90;100.00;76108.84;4958288;28;102253;-76
2023/10/05 05:13:36;;;;;;;;;3.00;2.00;;;;;-143.90;100.00;76102.66;4953544;28;106693;-76
2023/10/05 05:16:05;;;;;;;;;4.00;2.00;;;;;-143.90;100.00;76102.66;4980942;28;101975;-76
2023/10/05 05:18:32;;;;;;;;;4.00;4.00;;;;;-143.90;100.00;76094.38;4967854;28;101942;-75
2023/10/05 05:20:59;;;;;;;;;7.25;4.00;;;;;-143.90;100.00;76094.38;4999487;28;101862;-75
2023/10/05 05:23:25;;;;;;;;;6.00;4.75;;;;;-143.90;100.00;76090.25;4978658;28;104733;-75
2023/10/05 05:25:54;;;;;;;;;5.00;5.00;;;;;-143.90;100.00;76079.91;4966950;28;101652;-75
2023/10/05 05:28:24;;;;;;;;;8.00;7.50;;;;;-143.90;100.00;76079.91;4974556;28;102042;-75
2023/10/05 05:30:52;;;;;;;;;5.50;4.75;;;;;-143.90;100.00;76069.56;4982647;28;101913;-74
2023/10/05 05:33:19;;;;;;;;;4.50;4.00;;;;;-143.90;100.00;76065.44;4976499;28;102998;-75
2023/10/05 05:35:46;;;;;;;;;4.00;4.00;;;;;-143.90;100.00;76053.03;4980478;28;101720;-74
2023/10/05 05:38:12;;;;;;;;;3.25;3.00;;;;;-143.90;100.00;76050.97;4979889;28;101714;-75
2023/10/05 05:40:39;;;;;;;;;2.00;2.00;;;;;-143.90;100.00;76050.97;4978168;28;102057;-76
2023/10/05 05:43:11;;;;;;;;;5.50;4.00;;;;;-143.90;100.00;76044.75;4979005;28;107967;-76
2023/10/05 05:45:44;;;;;;;;;9.25;5.50;;;;;-143.90;100.00;76038.56;4979290;28;101666;-76
2023/10/05 05:48:14;;;;;;;;;7.50;6.00;;;;;-143.90;100.00;76019.94;4974145;28;101556;-76
2023/10/05 05:50:42;;;;;;;;;5.50;5.50;;;;;-143.90;100.00;76007.53;4978396;28;102699;-76
2023/10/05 05:53:12;;;;;;;;;4.75;4.00;;;;;-143.90;100.00;75991.00;4990244;27;102563;-77
2023/10/05 05:55:53;;;;;;;;;3.75;2.75;;;;;-143.90;100.00;75974.44;4970004;28;101660;-74
2023/10/05 05:58:20;;;;;;;;;7.00;4.00;;;;;-143.90;100.00;75972.38;4979231;28;101886;-75
2023/10/05 06:00:47;;;;;;;;;10.75;9.75;;;;;-143.90;100.00;75962.03;4990984;27;101764;-76
2023/10/05 06:03:15;;;;;;;;;7.75;7.50;;;;;-143.90;100.00;75964.13;4977500;28;103733;-76
2023/10/05 06:05:42;;;;;;;;;9.25;9.00;;;;;-143.90;100.00;75949.63;4988255;28;101858;-75
2023/10/05 06:08:11;;;;;;;;;7.75;6.00;;;;;-143.90;100.00;75937.22;4979072;28;101894;-75
2023/10/05 06:10:38;;;;;;;;;8.25;7.00;;;;;-143.90;100.00;75937.22;4982041;28;102066;-75
2023/10/05 06:13:11;;;;;;;;;9.00;7.75;;;;;-143.90;100.00;75920.69;4978269;28;109121;-75
2023/10/05 06:15:39;;;;;;;;;7.75;6.25;;;;;-143.90;100.00;75916.56;4977043;28;101931;-76
2023/10/05 06:18:07;;;;;;;;;8.50;7.50;;;;;-143.90;100.00;75924.81;4977073;28;101608;-76
2023/10/05 06:20:35;;;;;;;;;9.00;8.00;;;;;-143.90;100.00;75916.56;4975123;28;103317;-76
2023/10/05 06:23:02;;;;;;;;;8.25;6.25;;;;;-143.90;100.00;75910.34;4973454;28;105354;-76
2023/10/05 06:25:31;;;;;;;;;8.25;7.75;;;;;-143.90;100.00;75908.28;4971264;28;101726;-76
2023/10/05 06:27:59;;;;;;;;;5.00;5.00;;;;;-143.90;100.00;75891.75;4981528;28;102243;-77
2023/10/05 06:30:25;;;;;;;;;6.50;6.50;;;;;-143.90;100.00;75877.25;4977517;28;101824;-76
2023/10/05 06:32:54;;;;;;;;;8.75;7.00;;;;;-143.90;100.00;75862.78;4976860;28;103353;-75
2023/10/05 06:35:21;;;;;;;;;6.25;6.00;;;;;-143.90;100.00;75858.66;4977625;28;101873;-75
2023/10/05 06:37:49;;;;;;;;;7.25;6.50;;;;;-143.90;100.00;75840.03;4978314;28;101523;-76
2023/10/05 06:40:21;;;;;;;;;6.75;6.00;;;;;-143.90;100.00;75817.31;4983587;28;101773;-75
2023/10/05 06:42:49;;;;;;;;;4.50;3.75;;;;;-143.90;99.18;75813.16;4978388;28;104223;-74
2023/10/05 06:45:19;;;;;;;;;8.00;7.50;;;;;-143.90;98.38;75806.97;4976917;28;101860;-73
2023/10/05 06:47:48;;;;;;;;;4.50;4.50;;;;;-143.90;99.47;75788.34;4981424;28;101690;-75
2023/10/05 06:50:15;;;;;;;;;8.00;7.00;;;;;-143.90;100.00;75771.81;4971897;28;102620;-75
2023/10/05 06:52:43;;;;;;;;;8.50;5.25;;;;;-143.90;98.09;75765.59;4980952;28;103605;-75
2023/10/05 06:55:17;;;;;;;;;6.25;6.25;;;;;-143.90;98.38;75763.53;4974992;28;101895;-74
2023/10/05 06:57:45;;;;;;;;;7.00;5.25;;;;;-143.90;97.74;75751.13;4977061;27;101731;-75
2023/10/05 07:00:20;;;;;;;;;5.00;4.00;;;;;-143.90;97.97;75730.47;4981452;28;101605;-75
2023/10/05 07:02:53;;;;;;;;;7.50;6.00;;;;;-143.90;98.17;75707.72;4977983;28;109463;-74
2023/10/05 07:05:20;;;;;;;;;9.00;5.00;;;;;-143.90;96.88;75705.66;4979804;28;101485;-74
2023/10/05 07:07:47;;;;;;;;;6.00;5.25;;;;;-143.90;95.53;75693.25;4973617;28;101561;-74
2023/10/05 07:10:15;;;;;;;;;8.25;4.75;;;;;-143.90;93.74;75689.09;4982955;28;101856;-74
2023/10/05 07:12:47;;;;;;;;;3.75;3.00;;;;;-143.90;94.51;75676.69;4984875;28;107912;-74
2023/10/05 07:15:26;;;;;;;;;4.00;3.25;;;;;-143.90;93.59;75660.16;4970926;28;102511;-75
2023/10/05 07:17:53;;;;;;;;;6.75;4.50;;;;;-143.90;93.35;75662.22;4984655;28;101579;-75
2023/10/05 07:20:20;;;;;;;;;4.00;3.00;;;;;-143.90;93.38;75651.88;4980785;28;101680;-75
2023/10/05 07:22:47;;;;;;;;;4.00;3.75;;;;;-143.90;91.68;75645.69;4981346;28;102730;-75
2023/10/05 07:25:14;;;;;;;;;2.00;2.00;;;;;-143.90;93.48;75631.22;4979275;28;103207;-76
2023/10/05 07:27:41;;;;;;;;;2.25;2.25;;;;;-143.90;93.04;75622.94;4980322;28;103007;-75
2023/10/05 07:30:15;;;;;;;;;2.50;2.50;;;;;-143.90;91.93;75627.06;4983427;28;102763;-75
2023/10/05 07:32:42;;;;;;;;;2.75;2.00;;;;;-143.90;90.85;75614.66;4983757;28;106704;-75
2023/10/05 07:35:12;;;;;;;;;4.00;3.00;;;;;-143.90;91.69;75622.94;4979299;28;102128;-74
2023/10/05 07:37:41;;;;;;;;;3.75;3.00;;;;;-143.90;91.08;75618.81;4984001;28;102051;-74
2023/10/05 07:40:08;;;;;;;;;1.75;1.75;;;;;-143.90;90.41;75618.81;4982125;28;101872;-75
2023/10/05 07:42:38;;;;;;;;;2.50;1.00;;;;;-143.90;90.93;75604.34;4983632;28;103312;-75
2023/10/05 07:45:07;;;;;;;;;4.00;4.00;;;;;-143.90;90.21;75614.66;4984049;28;101553;-75
2023/10/05 07:47:44;;;;;;;;;3.00;3.00;;;;;-143.90;89.51;75591.94;4977302;28;101974;-75
2023/10/05 07:50:11;;;;;;;;;2.50;2.00;;;;;-143.90;89.43;75598.13;4987294;28;101958;-75
2023/10/05 07:52:40;;;;;;;;;1.50;1.00;;;;;-143.90;88.86;75589.84;4980223;28;102259;-75
2023/10/05 07:55:08;;;;;;;;;3.25;2.25;;;;;-143.90;87.42;75577.44;4984834;28;101784;-75
2023/10/05 07:57:35;;;;;;;;;3.00;3.00;;;;;-143.90;87.48;75560.91;5002233;27;101809;-75
2023/10/05 08:00:04;;;;;;;;;3.00;2.50;;;;;-143.90;87.83;75546.44;4977158;28;101789;-75
2023/10/05 08:02:31;;;;;;;;;3.00;2.50;;;;;-143.90;85.69;75534.03;4981542;28;103466;-75
2023/10/05 08:04:58;;;;;;;;;4.75;2.75;;;;;-143.90;86.09;75511.28;4979955;28;101901;-75
2023/10/05 08:07:25;;;;;;;;;1.50;1.50;;;;;-143.90;85.04;75486.47;4961628;27;101715;-76
2023/10/05 08:09:55;;;;;;;;;3.75;3.00;;;;;-143.90;84.66;75478.22;4979789;28;102069;-75
2023/10/05 08:12:21;;;;;;;;;2.00;2.00;;;;;-143.90;84.87;75465.81;4981792;28;104764;-76
2023/10/05 08:14:48;;;;;;;;;2.00;2.00;;;;;-143.90;84.04;75461.66;4965219;28;102017;-76
2023/10/05 08:17:17;;;;;;;;;1.75;1.75;;;;;-143.90;82.12;75447.19;4982710;28;102000;-77
2023/10/05 08:19:44;;;;;;;;;4.25;2.75;;;;;-143.90;82.22;75424.44;4979295;28;107928;-75
2023/10/05 08:22:11;;;;;;;;;2.50;2.50;;;;;-143.90;82.56;75401.72;4982750;28;106687;-76
2023/10/05 08:24:38;;;;;;;;;2.00;2.00;;;;;-143.90;80.58;75385.16;4978338;28;101481;-76
2023/10/05 08:27:14;;;;;;;;;3.25;1.50;;;;;-143.90;79.85;75362.44;4977701;28;103752;-77
2023/10/05 08:29:42;;;;;;;;;3.00;2.00;;;;;-143.90;77.36;75362.44;4984160;28;101842;-76
2023/10/05 08:32:16;;;;;;;;;3.00;2.25;;;;;-143.90;78.89;75354.16;4975171;28;102868;-75
2023/10/05 08:34:45;;;;;;;;;3.00;2.00;;;;;-143.90;78.52;75333.47;4980969;28;101743;-75
2023/10/05 08:37:13;;;;;;;;;2.50;2.00;;;;;-143.90;75.30;75310.75;4981565;28;101617;-75
2023/10/05 08:39:40;;;;;;;;;2.25;2.00;;;;;-143.90;77.29;75279.72;4984287;28;101644;-75
2023/10/05 08:42:07;;;;;;;;;2.50;1.25;;;;;-143.90;74.25;75273.53;4975169;28;102505;-75
2023/10/05 08:44:36;;;;;;;;;2.25;2.00;;;;;-143.90;74.57;75254.91;4976910;28;102555;-75
2023/10/05 08:47:05;;;;;;;;;3.00;3.00;;;;;-143.90;73.52;75246.66;4978566;28;101559;-75
2023/10/05 08:49:36;;;;;;;;;2.50;2.25;;;;;-143.90;72.61;75250.78;4980055;28;101976;-75
2023/10/05 08:52:13;;;;;;;;;2.00;2.00;;;;;-143.90;72.47;75228.03;4979334;28;102432;-75
2023/10/05 08:54:45;;;;;;;;;2.25;2.00;;;;;-143.90;72.28;75217.69;4979696;28;102016;-75
2023/10/05 08:57:16;;;;;;;;;3.00;2.00;;;;;-143.90;72.35;75213.56;4980310;28;101815;-76
2023/10/05 08:59:46;;;;;;;;;2.00;2.00;;;;;-143.90;70.46;75205.28;4981932;28;102022;-75
2023/10/05 09:02:21;;;;;;;;;2.00;2.00;;;;;-143.90;69.77;75197.03;4980208;28;107909;-75
2023/10/05 09:04:59;;;;;;;;;2.00;2.00;;;;;-143.90;69.50;75188.75;4981030;28;101973;-74
2023/10/05 09:07:37;;;;;;;;;3.00;2.50;;;;;-143.90;70.49;75168.09;4981726;28;101931;-75
2023/10/05 09:10:08;;;;;;;;;2.00;2.00;;;;;-143.90;70.13;75149.47;4982430;28;101766;-76
2023/10/05 09:12:36;;;;;;;;;5.00;3.00;;;;;-143.90;67.75;75153.63;4980494;28;104768;-77
2023/10/05 09:15:22;;;;;;;;;3.00;2.00;;;;;-143.90;68.61;75139.16;4976740;28;101853;-76
2023/10/05 09:17:56;;;;;;;;;4.50;3.50;;;;;-143.90;65.22;75122.59;4972054;28;102647;-77
2023/10/05 09:20:25;;;;;;;;;5.00;3.25;;;;;-143.90;67.10;75124.66;4976978;28;101835;-76
2023/10/05 09:22:54;;;;;;;;;1.00;1.00;;;;;-143.90;66.40;75110.19;4978566;28;104707;-77
2023/10/05 09:25:27;;;;;;;;;2.50;2.50;;;;;-143.90;65.87;75130.88;4971275;28;101913;-78
2023/10/05 09:27:56;;;;;;;;;4.00;3.00;;;;;-143.90;65.70;75126.75;4975904;28;101791;-76
2023/10/05 09:30:29;;;;;;;;;3.33;3.00;;;;;-143.90;67.75;75081.25;4982554;28;102079;-75
2023/10/05 09:33:18;;;;;;;;;3.67;3.00;;;;;-143.90;66.20;75077.13;4964306;28;102761;-76
2023/10/05 09:35:46;;;;;;;;;4.00;3.00;;;;;-143.90;65.95;75068.84;4988579;28;102008;-76
2023/10/05 09:38:14;;;;;;;;;2.00;2.00;;;;;-143.90;62.68;75052.31;4981239;28;102031;-77
2023/10/05 09:40:46;;;;;;;;;3.00;3.00;;;;;-143.90;62.41;75050.25;4994664;28;101918;-76
2023/10/05 09:43:21;;;;;;;;;2.33;2.00;;;;;-143.90;64.31;75029.56;4940994;28;109235;-76
2023/10/05 09:45:52;;;;;;;;;2.00;2.00;;;;;-143.90;64.45;75008.91;4973637;28;103155;-77
2023/10/05 09:48:21;;;;;;;;;2.00;1.00;;;;;-143.90;61.28;74994.44;4974612;28;101741;-75
2023/10/05 09:50:48;;;;;;;;;2.00;1.67;;;;;-143.90;61.09;74990.28;4980257;28;101878;-74
2023/10/05 09:53:19;;;;;;;;;3.00;3.00;;;;;-143.90;60.00;75015.09;4976808;28;105186;-76
2023/10/05 09:55:59;;;;;;;;;3.00;2.00;;;;;-143.90;62.52;75008.91;4973966;28;103589;-76
2023/10/05 09:58:28;;;;;;;;;2.67;2.67;;;;;-143.90;61.34;75031.63;4980408;27;101913;-75
2023/10/05 10:00:56;;;;;;;;;3.67;3.00;;;;;-143.90;62.79;75035.78;4988836;28;101609;-75
2023/10/05 10:03:23;;;;;;;;;2.00;1.00;;;;;-143.90;60.95;75019.22;4977994;28;103615;-76
2023/10/05 10:05:59;;;;;;;;;4.33;3.67;;;;;-143.90;60.42;75013.03;4972778;28;101879;-75
2023/10/05 10:08:30;;;;;;;;;2.00;2.00;;;;;-143.90;61.13;74990.28;4984474;28;101698;-76
2023/10/05 10:11:07;;;;;;;;;3.00;2.00;;;;;-143.90;58.86;74990.28;4984806;28;101700;-76
2023/10/05 10:13:38;;;;;;;;;2.00;1.33;;;;;-143.90;58.36;74963.41;4967604;27;103064;-76
2023/10/05 10:16:22;;;;;;;;;3.00;2.67;;;;;-143.90;58.62;74967.56;4976659;28;101753;-77
2023/10/05 10:19:18;;;;;;;;;2.67;2.67;;;;;-143.90;58.41;74965.50;4974199;28;101618;-77
2023/10/05 10:21:57;;;;;;;;;2.33;2.00;;;;;-143.90;59.58;74951.00;4975801;28;104564;-77
2023/10/05 10:24:29;;;;;;;;;3.00;3.00;;;;;-143.90;59.34;74932.41;4971477;28;107736;-77
2023/10/05 10:27:07;;;;;;;;;2.00;2.00;;;;;-143.90;56.80;74934.47;4976990;28;102697;-75
2023/10/05 10:29:42;;;;;;;;;3.00;2.00;;;;;-143.90;58.98;74915.88;4975602;28;101746;-76
2023/10/05 10:32:20;;;;;;;;;3.00;2.00;;;;;-143.90;58.01;74913.81;4969477;28;101532;-77
2023/10/05 10:34:52;;;;;;;;;3.00;2.00;;;;;-143.90;60.19;74878.66;4970794;28;108899;-75
2023/10/05 10:37:42;;;;;;;;;2.00;2.00;;;;;-143.90;60.15;74858.00;4974207;28;101575;-76
2023/10/05 10:42:50;;;;;;;;;2.00;2.00;;;;;-143.90;57.09;74858.00;4974782;28;101986;-76
2023/10/05 10:45:28;;;;;;;;;3.00;1.67;;;;;-143.90;57.03;74853.84;4966100;28;107152;-75
2023/10/05 10:47:56;;;;;;;;;1.00;1.00;;;;;-143.90;55.78;74878.66;4975641;28;101755;-76
2023/10/05 10:50:29;;;;;;;;;2.00;2.00;;;;;-143.90;57.77;74870.38;4965163;28;102036;-76
2023/10/05 10:52:58;;;;;;;;;2.00;2.00;;;;;-143.90;55.31;74874.53;4973734;28;102220;-76
2023/10/05 10:55:30;;;;;;;;;2.00;2.00;;;;;-143.90;55.47;74886.94;4991544;28;102911;-76
2023/10/05 10:58:04;;;;;;;;;3.33;2.00;;;;;-143.90;54.28;74868.31;4972953;28;101998;-76
2023/10/05 11:03:15;;;;;;;;;3.00;3.00;;;;;-143.90;52.85;74889.00;4961861;28;101980;-77
2023/10/05 11:05:48;;;;;;;;;2.33;2.00;;;;;-143.90;54.62;74882.78;4966341;28;107002;-76
2023/10/05 11:08:20;;;;;;;;;2.00;2.00;;;;;-143.90;54.20;74870.38;4975113;28;102060;-75
2023/10/05 11:11:09;;;;;;;;;4.00;3.00;;;;;-143.90;53.80;74899.34;4965641;28;102662;-73
2023/10/05 11:13:43;;;;;;;;;2.67;2.67;;;;;-143.90;53.93;74913.81;4976311;28;101616;-74
2023/10/05 11:16:11;;;;;;;;;2.67;2.00;;;;;-143.90;54.64;74924.13;4979981;28;104614;-76
2023/10/05 11:18:58;;;;;;;;;2.00;2.00;;;;;-143.90;56.01;74909.66;4973363;28;102059;-76
2023/10/05 11:21:26;;;;;;;;;2.00;2.00;;;;;-143.90;55.65;74895.19;4990254;28;101874;-76
2023/10/05 11:23:57;;;;;;;;;1.00;1.00;;;;;-143.90;54.68;74895.19;4976351;28;101504;-76
2023/10/05 11:27:05;;;;;;;;;3.00;2.00;;;;;-143.90;53.01;74897.25;4977470;28;104977;-75
2023/10/05 11:29:28;;;;;;;;;2.67;2.67;;;;;-143.90;53.88;74895.19;4975909;28;101847;-76
2023/10/05 11:32:12;;;;;;;;;3.00;2.00;;;;;-143.90;53.43;74889.00;4977607;28;102532;-75
2023/10/05 11:35:13;;;;;;;;;3.00;3.00;;;;;-143.90;53.61;74905.53;4968140;28;101613;-77
2023/10/05 11:38:03;;;;;;;;;3.00;3.00;;;;;-143.90;53.39;74884.88;4973312;28;109316;-77
2023/10/05 11:40:42;;;;;;;;;3.00;3.00;;;;;-143.90;52.56;74858.00;4973153;28;102026;-78
2023/10/05 11:43:13;;;;;;;;;3.33;3.00;;;;;-143.90;53.75;74868.31;4976316;28;102298;-75
2023/10/05 11:46:00;;;;;;;;;2.00;2.00;;;;;-143.90;53.56;74870.38;4981281;28;102660;-75
2023/10/05 11:48:42;;;;;;;;;2.67;1.33;;;;;-143.90;54.03;74872.47;4976668;28;107761;-77
2023/10/05 11:51:13;;;;;;;;;5.00;3.00;;;;;-143.90;54.17;74870.38;4989883;28;101576;-78
2023/10/05 11:53:39;;;;;;;;;2.00;2.00;;;;;-143.90;52.88;74845.59;4998544;28;102170;-76